createdAt,value
2018-05-19T00:00:56.510Z,14.72
2018-05-19T00:01:56.861Z,14.62
2018-05-19T00:02:56.823Z,14.62
2018-05-19T00:03:56.558Z,14.64
2018-05-19T00:04:56.862Z,14.58
2018-05-19T00:05:56.627Z,14.58
2018-05-19T00:07:56.906Z,14.61
2018-05-19T00:08:56.962Z,14.62
2018-05-19T00:09:56.954Z,14.64
2018-05-19T00:10:56.735Z,14.57
2018-05-19T00:11:56.995Z,14.64
2018-05-19T00:12:57.034Z,14.61
2018-05-19T00:13:57.033Z,14.73
2018-05-19T00:14:57.087Z,14.6
2018-05-19T00:15:56.580Z,14.57
2018-05-19T00:16:56.861Z,14.62
2018-05-19T00:17:57.127Z,14.58
2018-05-19T00:18:57.144Z,14.61
2018-05-19T00:19:57.201Z,14.54
2018-05-19T00:20:57.208Z,14.65
2018-05-19T00:21:56.987Z,14.65
2018-05-19T00:23:11.638Z,14.68
2018-05-19T00:23:57.303Z,14.64
2018-05-19T00:24:57.023Z,14.62
2018-05-19T00:25:57.322Z,14.65
2018-05-19T00:26:57.326Z,14.65
2018-05-19T00:27:57.395Z,14.5
2018-05-19T00:29:57.149Z,14.57
2018-05-19T00:30:57.427Z,14.65
2018-05-19T00:31:57.196Z,14.6
2018-05-19T00:32:57.478Z,14.52
2018-05-19T00:33:57.510Z,14.62
2018-05-19T00:34:57.504Z,14.58
2018-05-19T00:35:57.542Z,14.58
2018-05-19T00:36:57.569Z,14.54
2018-05-19T00:37:57.600Z,14.5
2018-05-19T00:39:12.268Z,14.51
2018-05-19T00:39:57.623Z,14.55
2018-05-19T00:40:57.664Z,14.52
2018-05-19T00:42:57.498Z,14.51
2018-05-19T00:43:57.711Z,14.5
2018-05-19T00:44:57.493Z,14.5
2018-05-19T00:45:57.774Z,14.6
2018-05-19T00:46:57.512Z,14.68
2018-05-19T00:47:57.805Z,14.54
2018-05-19T00:48:57.820Z,14.64
2018-05-19T00:50:12.514Z,14.57
2018-05-19T00:50:57.862Z,14.64
2018-05-19T00:52:57.950Z,14.58
2018-05-19T00:53:57.945Z,14.68
2018-05-19T00:55:57.970Z,14.62
2018-05-19T00:56:57.746Z,14.6
2018-05-19T00:57:57.758Z,14.62
2018-05-19T00:58:58.067Z,14.52
2018-05-19T00:59:58.063Z,14.6
2018-05-19T01:00:57.828Z,14.51
2018-05-19T01:01:57.873Z,14.62
2018-05-19T01:02:58.162Z,14.65
2018-05-19T01:03:58.152Z,14.7
2018-05-19T01:05:12.842Z,14.62
2018-05-19T01:05:58.203Z,14.52
2018-05-19T01:06:58.247Z,14.51
2018-05-19T01:08:58.026Z,14.5
2018-05-19T01:10:12.959Z,14.37
2018-05-19T01:10:58.308Z,14.5
2018-05-19T01:11:58.336Z,14.42
2018-05-19T01:12:58.382Z,14.51
2018-05-19T01:14:13.034Z,14.32
2018-05-19T01:15:58.413Z,14.33
2018-05-19T01:16:58.443Z,14.32
2018-05-19T01:17:58.226Z,14.42
2018-05-19T01:18:58.500Z,14.5
2018-05-19T01:19:58.539Z,14.5
2018-05-19T01:20:58.540Z,14.46
2018-05-19T01:22:58.315Z,14.45
2018-05-19T01:24:58.640Z,14.45
2018-05-19T01:25:58.653Z,14.37
2018-05-19T01:26:58.663Z,14.4
2018-05-19T01:27:58.718Z,14.27
2018-05-19T01:28:58.707Z,14.39
2018-05-19T01:30:58.558Z,14.42
2018-05-19T01:31:58.884Z,14.33
2018-05-19T01:32:58.791Z,14.35
2018-05-19T01:34:13.478Z,14.4
2018-05-19T01:34:58.601Z,14.36
2018-05-19T01:36:13.258Z,14.43
2018-05-19T01:36:58.739Z,14.42
2018-05-19T01:37:58.658Z,14.37
2018-05-19T01:38:58.957Z,14.46
2018-05-19T01:39:58.945Z,14.43
2018-05-19T01:40:58.981Z,14.4
2018-05-19T01:42:13.662Z,14.43
2018-05-19T01:43:59.066Z,14.33
2018-05-19T01:44:59.057Z,14.27
2018-05-19T01:45:59.114Z,14.32
2018-05-19T01:46:59.108Z,14.29
2018-05-19T01:47:58.867Z,14.28
2018-05-19T01:48:58.898Z,14.46
2018-05-19T01:49:58.936Z,14.37
2018-05-19T01:50:59.217Z,14.42
2018-05-19T01:51:59.213Z,14.39
2018-05-19T01:52:59.245Z,14.28
2018-05-19T01:53:59.288Z,14.36
2018-05-19T01:54:59.284Z,14.36
2018-05-19T01:55:59.327Z,14.35
2018-05-19T01:56:59.320Z,14.46
2018-05-19T01:58:14.021Z,14.36
2018-05-19T01:58:59.385Z,14.25
2018-05-19T01:59:59.418Z,14.2
2018-05-19T02:00:59.444Z,14.32
2018-05-19T02:01:59.437Z,14.35
2018-05-19T02:02:59.218Z,14.17
2018-05-19T02:03:59.222Z,14.15
2018-05-19T02:04:59.533Z,14.1
2018-05-19T02:05:59.520Z,14.09
2018-05-19T02:06:59.572Z,14.18
2018-05-19T02:07:59.324Z,14.18
2018-05-19T02:09:14.264Z,14.12
2018-05-19T02:09:59.607Z,14.06
2018-05-19T02:10:59.376Z,14.12
2018-05-19T02:11:59.417Z,14.03
2018-05-19T02:12:59.679Z,14.07
2018-05-19T02:14:14.373Z,14.25
2018-05-19T02:15:14.133Z,14.18
2018-05-19T02:15:59.489Z,14.12
2018-05-19T02:17:59.786Z,14.1
2018-05-19T02:18:59.293Z,14.1
2018-05-19T02:19:59.855Z,14.04
2018-05-19T02:21:14.516Z,14
2018-05-19T02:21:59.627Z,14
2018-05-19T02:22:59.661Z,14.06
2018-05-19T02:23:59.916Z,14.1
2018-05-19T02:25:59.724Z,13.92
2018-05-19T02:26:59.739Z,13.96
2018-05-19T02:27:59.745Z,13.99
2018-05-19T02:28:59.765Z,13.95
2018-05-19T02:30:14.734Z,13.92
2018-05-19T02:31:00.202Z,13.85
2018-05-19T02:32:00.125Z,14
2018-05-19T02:32:59.873Z,13.97
2018-05-19T02:33:59.906Z,13.95
2018-05-19T02:34:59.900Z,13.92
2018-05-19T02:36:59.802Z,13.91
2018-05-19T02:38:00.253Z,13.95
2018-05-19T02:39:00.309Z,13.96
2018-05-19T02:40:14.935Z,14.02
2018-05-19T02:41:00.329Z,13.97
2018-05-19T02:42:00.315Z,13.92
2018-05-19T02:43:00.356Z,13.89
2018-05-19T02:44:00.368Z,13.96
2018-05-19T02:45:15.058Z,13.88
2018-05-19T02:46:00.435Z,13.87
2018-05-19T02:47:00.429Z,13.73
2018-05-19T02:48:00.461Z,13.71
2018-05-19T02:49:00.501Z,13.7
2018-05-19T02:50:00.491Z,13.62
2018-05-19T02:51:00.575Z,13.62
2018-05-19T02:52:00.536Z,13.66
2018-05-19T02:53:00.563Z,13.62
2018-05-19T02:54:00.590Z,13.57
2018-05-19T02:55:00.638Z,13.67
2018-05-19T02:56:00.650Z,13.63
2018-05-19T02:57:00.655Z,13.69
2018-05-19T02:58:00.699Z,13.64
2018-05-19T03:00:00.740Z,13.64
2018-05-19T03:01:00.472Z,13.66
2018-05-19T03:02:00.781Z,13.54
2018-05-19T03:03:00.807Z,13.59
2018-05-19T03:04:00.812Z,13.62
2018-05-19T03:05:00.842Z,13.66
2018-05-19T03:06:00.841Z,13.54
2018-05-19T03:07:00.895Z,13.54
2018-05-19T03:08:15.544Z,13.49
2018-05-19T03:09:00.939Z,13.52
2018-05-19T03:10:00.694Z,13.51
2018-05-19T03:11:00.966Z,13.51
2018-05-19T03:12:00.728Z,13.51
2018-05-19T03:13:00.998Z,13.57
2018-05-19T03:14:00.785Z,13.62
2018-05-19T03:15:00.552Z,13.52
2018-05-19T03:16:01.089Z,13.55
2018-05-19T03:17:15.905Z,13.51
2018-05-19T03:18:00.858Z,13.45
2018-05-19T03:19:01.173Z,13.51
2018-05-19T03:20:01.181Z,13.44
2018-05-19T03:21:01.173Z,13.38
2018-05-19T03:22:15.869Z,13.36
2018-05-19T03:23:01.213Z,13.45
2018-05-19T03:24:01.294Z,13.44
2018-05-19T03:25:01.251Z,13.49
2018-05-19T03:26:01.304Z,13.57
2018-05-19T03:27:15.973Z,13.63
2018-05-19T03:28:01.335Z,13.55
2018-05-19T03:29:01.361Z,13.63
2018-05-19T03:30:01.388Z,13.57
2018-05-19T03:31:01.413Z,13.6
2018-05-19T03:32:01.160Z,13.6
2018-05-19T03:33:16.107Z,13.52
2018-05-19T03:35:01.492Z,13.59
2018-05-19T03:36:01.678Z,13.6
2018-05-19T03:37:01.513Z,13.7
2018-05-19T03:38:01.571Z,13.64
2018-05-19T03:39:01.563Z,13.63
2018-05-19T03:40:01.609Z,13.81
2018-05-19T03:41:01.602Z,13.75
2018-05-19T03:42:01.652Z,13.75
2018-05-19T03:43:01.649Z,13.87
2018-05-19T03:44:01.417Z,13.89
2018-05-19T03:45:01.449Z,13.87
2018-05-19T03:46:01.711Z,13.99
2018-05-19T03:47:01.730Z,14.04
2018-05-19T03:48:01.518Z,14.15
2018-05-19T03:49:16.444Z,14.15
2018-05-19T03:50:01.922Z,14.22
2018-05-19T03:51:01.826Z,14.17
2018-05-19T03:52:01.872Z,14.07
2018-05-19T03:53:01.865Z,14.04
2018-05-19T03:54:01.785Z,14.04
2018-05-19T03:55:01.945Z,14.06
2018-05-19T03:56:01.965Z,14.18
2018-05-19T03:57:01.454Z,14.22
2018-05-19T03:58:01.995Z,14.17
2018-05-19T03:59:01.999Z,14.17
2018-05-19T04:00:01.764Z,14.14
2018-05-19T04:01:02.069Z,14.29
2018-05-19T04:02:02.082Z,14.4
2018-05-19T04:03:02.116Z,14.54
2018-05-19T04:04:01.852Z,14.52
2018-05-19T04:05:16.808Z,14.5
2018-05-19T04:06:01.899Z,14.54
2018-05-19T04:07:02.188Z,14.5
2018-05-19T04:08:02.212Z,14.39
2018-05-19T04:09:02.250Z,14.36
2018-05-19T04:10:01.991Z,14.18
2018-05-19T04:12:16.948Z,14.33
2018-05-19T04:13:02.344Z,14.43
2018-05-19T04:14:17.042Z,14.61
2018-05-19T04:15:02.375Z,14.68
2018-05-19T04:16:02.381Z,14.6
2018-05-19T04:17:02.401Z,14.54
2018-05-19T04:18:02.455Z,14.52
2018-05-19T04:19:02.465Z,14.42
2018-05-19T04:20:17.149Z,14.47
2018-05-19T04:21:02.494Z,14.52
2018-05-19T04:22:02.547Z,14.51
2018-05-19T04:23:02.539Z,14.55
2018-05-19T04:24:02.568Z,14.64
2018-05-19T04:25:02.339Z,14.64
2018-05-19T04:27:02.659Z,14.7
2018-05-19T04:28:02.655Z,14.6
2018-05-19T04:29:17.351Z,14.57
2018-05-19T04:30:02.695Z,14.68
2018-05-19T04:31:02.729Z,14.7
2018-05-19T04:32:02.760Z,14.55
2018-05-19T04:34:02.816Z,14.73
2018-05-19T04:35:02.811Z,14.81
2018-05-19T04:36:02.862Z,14.73
2018-05-19T04:37:02.862Z,14.83
2018-05-19T04:38:02.896Z,14.73
2018-05-19T04:39:02.938Z,14.54
2018-05-19T04:41:02.684Z,14.58
2018-05-19T04:42:02.993Z,14.64
2018-05-19T04:43:02.747Z,14.51
2018-05-19T04:44:02.778Z,14.46
2018-05-19T04:45:17.691Z,14.52
2018-05-19T04:46:03.087Z,14.46
2018-05-19T04:47:03.093Z,14.6
2018-05-19T04:48:03.117Z,14.61
2018-05-19T04:49:03.129Z,14.55
2018-05-19T04:50:03.277Z,14.43
2018-05-19T04:51:02.912Z,14.46
2018-05-19T04:52:17.865Z,14.45
2018-05-19T04:53:02.970Z,14.45
2018-05-19T04:54:03.268Z,14.54
2018-05-19T04:55:02.740Z,14.77
2018-05-19T04:56:03.308Z,15.16
2018-05-19T04:57:03.304Z,15.43
2018-05-19T04:58:03.381Z,15.65
2018-05-19T04:59:03.350Z,15.8
2018-05-19T05:00:03.139Z,15.78
2018-05-19T05:01:03.424Z,15.9
2018-05-19T05:02:18.081Z,15.92
2018-05-19T05:03:18.115Z,16.05
2018-05-19T05:04:03.300Z,16
2018-05-19T05:05:03.490Z,15.86
2018-05-19T05:06:03.549Z,15.94
2018-05-19T05:07:03.539Z,16.21
2018-05-19T05:08:18.223Z,16.43
2018-05-19T05:09:03.594Z,16.5
2018-05-19T05:10:03.655Z,16.67
2018-05-19T05:11:03.660Z,16.93
2018-05-19T05:12:03.666Z,17.41
2018-05-19T05:13:03.693Z,17.93
2018-05-19T05:14:03.982Z,18.23
2018-05-19T05:15:03.495Z,18.3
2018-05-19T05:16:03.757Z,18.45
2018-05-19T05:17:03.812Z,18.14
2018-05-19T05:18:03.814Z,18.5
2018-05-19T05:19:18.503Z,19
2018-05-19T05:20:03.598Z,19.46
2018-05-19T05:21:03.614Z,19.68
2018-05-19T05:23:03.671Z,20.21
2018-05-19T05:24:18.630Z,20.59
2018-05-19T05:25:04.005Z,20.51
2018-05-19T05:26:03.771Z,20.69
2018-05-19T05:27:03.896Z,21.24
2018-05-19T05:28:03.801Z,21.47
2018-05-19T05:29:04.100Z,22.03
2018-05-19T05:30:04.146Z,22.22
2018-05-19T05:31:04.148Z,21.99
2018-05-19T05:32:04.204Z,22.54
2018-05-19T05:33:03.944Z,22.65
2018-05-19T05:34:03.988Z,22.92
2018-05-19T05:35:04.251Z,22.67
2018-05-19T05:36:04.662Z,22.82
2018-05-19T05:37:04.045Z,22.76
2018-05-19T05:38:04.339Z,23.15
2018-05-19T05:39:04.119Z,23.48
2018-05-19T05:40:19.071Z,24.18
2018-05-19T05:41:04.286Z,24.52
2018-05-19T05:42:04.185Z,24.45
2018-05-19T05:43:04.274Z,24.73
2018-05-19T05:44:19.172Z,24.69
2018-05-19T05:45:04.290Z,24.84
2018-05-19T05:46:04.566Z,24.45
2018-05-19T05:47:04.363Z,24.08
2018-05-19T05:48:19.313Z,23.01
2018-05-19T05:49:19.317Z,22.86
2018-05-19T05:50:04.484Z,22.75
2018-05-19T05:51:04.717Z,23
2018-05-19T05:52:04.779Z,22.67
2018-05-19T05:53:04.784Z,23.01
2018-05-19T05:54:04.838Z,23.32
2018-05-19T05:55:19.517Z,23.69
2018-05-19T05:56:04.627Z,23.97
2018-05-19T05:57:04.896Z,24.25
2018-05-19T05:58:04.695Z,24.58
2018-05-19T05:59:04.967Z,25.06
2018-05-19T06:00:04.485Z,25.23
2018-05-19T06:01:05.021Z,25.35
2018-05-19T06:02:04.556Z,24.93
2018-05-19T06:03:04.827Z,24.78
2018-05-19T06:04:04.880Z,25.09
2018-05-19T06:05:05.153Z,25.21
2018-05-19T06:06:19.948Z,25.64
2018-05-19T06:07:05.210Z,25.73
2018-05-19T06:08:05.240Z,26.01
2018-05-19T06:09:05.297Z,25.77
2018-05-19T06:10:05.320Z,26.32
2018-05-19T06:11:05.465Z,26.52
2018-05-19T06:12:05.432Z,26.76
2018-05-19T06:13:05.169Z,26.91
2018-05-19T06:14:05.185Z,26.84
2018-05-19T06:15:05.501Z,26.72
2018-05-19T06:16:05.237Z,26.57
2018-05-19T06:17:05.036Z,26.82
2018-05-19T06:18:05.574Z,26.94
2018-05-19T06:19:05.806Z,27.36
2018-05-19T06:20:05.625Z,27.57
2018-05-19T06:21:05.401Z,27.51
2018-05-19T06:22:05.748Z,27.18
2018-05-19T06:23:05.743Z,27.63
2018-05-19T06:24:05.763Z,27.31
2018-05-19T06:25:05.841Z,27.67
2018-05-19T06:26:05.829Z,27.57
2018-05-19T06:27:20.538Z,26.63
2018-05-19T06:28:05.976Z,26.63
2018-05-19T06:29:05.422Z,26.06
2018-05-19T06:30:05.699Z,25.99
2018-05-19T06:31:05.993Z,26.39
2018-05-19T06:33:06.063Z,27.19
2018-05-19T06:34:06.126Z,27.82
2018-05-19T06:35:06.147Z,28.3
2018-05-19T06:36:20.843Z,28.14
2018-05-19T06:37:05.943Z,27.85
2018-05-19T06:38:06.267Z,27.54
2018-05-19T06:39:06.008Z,27.02
2018-05-19T06:40:20.715Z,26.88
2018-05-19T06:41:06.347Z,26.91
2018-05-19T06:42:06.505Z,26.7
2018-05-19T06:43:20.802Z,27.13
2018-05-19T06:44:06.202Z,27.67
2018-05-19T06:45:06.233Z,27.72
2018-05-19T06:47:06.549Z,27.19
2018-05-19T06:48:21.451Z,27.49
2018-05-19T06:49:06.639Z,27.41
2018-05-19T06:50:06.659Z,27.7
2018-05-19T06:51:06.705Z,28.15
2018-05-19T06:52:06.732Z,28.39
2018-05-19T06:53:06.496Z,28.06
2018-05-19T06:55:06.583Z,27.67
2018-05-19T06:56:06.594Z,27.46
2018-05-19T06:57:06.998Z,27.78
2018-05-19T06:58:06.659Z,28.59
2018-05-19T06:59:21.633Z,28.64
2018-05-19T07:00:06.470Z,28.59
2018-05-19T07:02:06.826Z,28.41
2018-05-19T07:03:06.836Z,28.48
2018-05-19T07:04:07.139Z,28
2018-05-19T07:05:06.916Z,27.43
2018-05-19T07:06:06.701Z,27.1
2018-05-19T07:07:21.894Z,26.51
2018-05-19T07:08:07.211Z,26.92
2018-05-19T07:09:06.801Z,27.43
2018-05-19T07:10:07.359Z,27.62
2018-05-19T07:11:07.466Z,28.22
2018-05-19T07:12:07.214Z,28.34
2018-05-19T07:13:07.482Z,28.31
2018-05-19T07:14:07.503Z,28.44
2018-05-19T07:15:22.190Z,28.62
2018-05-19T07:16:07.285Z,28.64
2018-05-19T07:17:07.618Z,28.71
2018-05-19T07:18:07.357Z,28.36
2018-05-19T07:19:07.402Z,28.4
2018-05-19T07:20:07.451Z,28.41
2018-05-19T07:21:07.716Z,28.71
2018-05-19T07:22:07.763Z,28.04
2018-05-19T07:23:07.809Z,27.57
2018-05-19T07:24:07.855Z,27.85
2018-05-19T07:25:07.633Z,28.31
2018-05-19T07:26:07.900Z,28.41
2018-05-19T07:27:07.944Z,27.92
2018-05-19T07:28:07.713Z,27.92
2018-05-19T07:29:07.765Z,27.63
2018-05-19T07:30:22.694Z,27.09
2018-05-19T07:31:07.842Z,26.28
2018-05-19T07:32:07.859Z,26.01
2018-05-19T07:34:07.914Z,26.69
2018-05-19T07:35:07.692Z,27.27
2018-05-19T07:36:08.473Z,27.63
2018-05-19T07:37:08.297Z,26.99
2018-05-19T07:38:08.347Z,27.24
2018-05-19T07:39:08.356Z,27.36
2018-05-19T07:40:08.148Z,26.6
2018-05-19T07:41:08.431Z,26.45
2018-05-19T07:42:08.502Z,26.23
2018-05-19T07:43:07.970Z,26.47
2018-05-19T07:44:08.552Z,26.84
2018-05-19T07:45:08.056Z,27.66
2018-05-19T07:46:08.595Z,27.97
2018-05-19T07:47:08.658Z,28.15
2018-05-19T07:48:08.691Z,28.43
2018-05-19T07:49:08.717Z,28.3
2018-05-19T07:50:08.739Z,27.39
2018-05-19T07:51:08.781Z,27.41
2018-05-19T07:52:08.843Z,27.88
2018-05-19T07:53:08.862Z,28.64
2018-05-19T07:54:08.640Z,28.64
2018-05-19T07:55:08.911Z,28.98
2018-05-19T07:56:08.443Z,29.42
2018-05-19T07:57:08.974Z,29.58
2018-05-19T07:58:09.057Z,28.98
2018-05-19T07:59:08.794Z,28.74
2018-05-19T08:00:08.854Z,28.41
2018-05-19T08:01:09.131Z,28.11
2018-05-19T08:02:23.577Z,28.48
2018-05-19T08:03:09.188Z,27.94
2018-05-19T08:04:09.225Z,27.22
2018-05-19T08:05:09.292Z,26.62
2018-05-19T08:06:09.039Z,26.18
2018-05-19T08:08:09.115Z,26.37
2018-05-19T08:09:09.435Z,26.23
2018-05-19T08:10:09.174Z,26.57
2018-05-19T08:12:09.546Z,27.59
2018-05-19T08:13:09.556Z,27.43
2018-05-19T08:14:09.314Z,27.39
2018-05-19T08:15:09.383Z,27.72
2018-05-19T08:17:09.705Z,26.85
2018-05-19T08:18:24.394Z,27.13
2018-05-19T08:19:09.892Z,26.85
2018-05-19T08:20:09.781Z,26.92
2018-05-19T08:21:09.552Z,26.69
2018-05-19T08:22:09.874Z,27.1
2018-05-19T08:23:09.638Z,27.39
2018-05-19T08:24:09.664Z,27.55
2018-05-19T08:25:09.986Z,27.28
2018-05-19T08:26:09.726Z,27.31
2018-05-19T08:27:10.041Z,27.65
2018-05-19T08:28:09.814Z,28.14
2018-05-19T08:29:10.107Z,28.27
2018-05-19T08:30:10.114Z,28.29
2018-05-19T08:31:10.148Z,28.36
2018-05-19T08:32:10.205Z,28.4
2018-05-19T08:33:10.233Z,28.29
2018-05-19T08:34:24.926Z,28.67
2018-05-19T08:35:10.632Z,28.43
2018-05-19T08:36:10.082Z,28.3
2018-05-19T08:37:09.837Z,27.96
2018-05-19T08:38:10.129Z,27.84
2018-05-19T08:39:25.101Z,28.04
2018-05-19T08:40:10.189Z,28.21
2018-05-19T08:41:10.127Z,28.09
2018-05-19T08:42:10.539Z,27.92
2018-05-19T08:43:24.954Z,27.77
2018-05-19T08:44:10.346Z,27.7
2018-05-19T08:45:25.015Z,27.5
2018-05-19T08:46:10.674Z,27.85
2018-05-19T08:47:10.683Z,28
2018-05-19T08:48:10.719Z,27.87
2018-05-19T08:49:10.505Z,28.19
2018-05-19T08:50:25.494Z,27.94
2018-05-19T08:51:25.225Z,27.87
2018-05-19T08:52:10.970Z,28.19
2018-05-19T08:55:10.680Z,27.03
2018-05-19T08:56:11.015Z,27.44
2018-05-19T08:57:10.745Z,27.31
2018-05-19T08:58:11.301Z,27.06
2018-05-19T08:59:10.561Z,26.75
2018-05-19T09:00:10.871Z,26.75
2018-05-19T09:01:10.875Z,26.77
2018-05-19T09:02:10.908Z,27.06
2018-05-19T09:03:11.237Z,26.99
2018-05-19T09:04:11.247Z,26.7
2018-05-19T09:05:25.927Z,26.88
2018-05-19T09:06:11.328Z,27.13
2018-05-19T09:07:11.075Z,27.17
2018-05-19T09:08:11.392Z,27.21
2018-05-19T09:09:11.413Z,27.37
2018-05-19T09:10:11.475Z,27.62
2018-05-19T09:11:26.121Z,27.36
2018-05-19T09:12:11.493Z,26.51
2018-05-19T09:13:11.672Z,26.66
2018-05-19T09:14:11.576Z,26.76
2018-05-19T09:15:26.269Z,27.67
2018-05-19T09:16:11.628Z,27.77
2018-05-19T09:17:11.681Z,27.7
2018-05-19T09:18:11.684Z,27.04
2018-05-19T09:19:11.735Z,27.43
2018-05-19T09:20:11.811Z,27.28
2018-05-19T09:21:11.811Z,27.44
2018-05-19T09:22:11.848Z,27.6
2018-05-19T09:23:11.971Z,27.72
2018-05-19T09:24:11.640Z,28.39
2018-05-19T09:25:12.002Z,28.86
2018-05-19T09:27:11.712Z,28.96
2018-05-19T09:28:12.036Z,29.3
2018-05-19T09:29:11.803Z,28.81
2018-05-19T09:30:12.074Z,28.93
2018-05-19T09:31:26.776Z,29.19
2018-05-19T09:32:12.156Z,28.85
2018-05-19T09:33:11.906Z,28.92
2018-05-19T09:34:12.253Z,28.81
2018-05-19T09:35:12.235Z,29.15
2018-05-19T09:36:12.265Z,28.9
2018-05-19T09:37:26.966Z,28.41
2018-05-19T09:38:12.342Z,27.67
2018-05-19T09:39:12.391Z,27.79
2018-05-19T09:40:12.139Z,27.97
2018-05-19T09:41:12.548Z,28.29
2018-05-19T09:42:12.197Z,28.4
2018-05-19T09:43:27.217Z,28.68
2018-05-19T09:44:12.519Z,28.48
2018-05-19T09:45:12.588Z,28.36
2018-05-19T09:46:12.608Z,28.73
2018-05-19T09:47:12.694Z,28.37
2018-05-19T09:48:12.659Z,28.14
2018-05-19T09:49:12.676Z,27.78
2018-05-19T09:50:12.494Z,27.47
2018-05-19T09:51:12.486Z,27.51
2018-05-19T09:52:12.804Z,27.59
2018-05-19T09:53:27.463Z,27.75
2018-05-19T09:54:12.877Z,27.93
2018-05-19T09:55:12.915Z,27.97
2018-05-19T09:56:12.901Z,27.72
2018-05-19T09:57:12.963Z,28.07
2018-05-19T09:58:12.970Z,28.11
2018-05-19T09:59:13.014Z,28.14
2018-05-19T10:00:12.794Z,27.69
2018-05-19T10:01:12.794Z,27.99
2018-05-19T10:02:13.121Z,28.09
2018-05-19T10:05:13.373Z,27.7
2018-05-19T10:06:13.214Z,27.39
2018-05-19T10:07:13.272Z,27.37
2018-05-19T10:08:13.288Z,26.87
2018-05-19T10:09:27.716Z,26.91
2018-05-19T10:10:13.368Z,27.14
2018-05-19T10:12:13.420Z,27.27
2018-05-19T10:13:13.424Z,27.27
2018-05-19T10:14:13.497Z,27.06
2018-05-19T10:15:13.482Z,26.72
2018-05-19T10:16:13.283Z,26.85
2018-05-19T10:17:13.774Z,26.8
2018-05-19T10:18:13.604Z,26.97
2018-05-19T10:19:13.610Z,27.41
2018-05-19T10:20:13.642Z,27.34
2018-05-19T10:21:13.677Z,27.02
2018-05-19T10:23:14.227Z,27.29
2018-05-19T10:24:13.768Z,27.41
2018-05-19T10:25:28.467Z,27.1
2018-05-19T10:27:13.875Z,27.03
2018-05-19T10:28:14.021Z,26.6
2018-05-19T10:29:13.931Z,26.44
2018-05-19T10:30:13.677Z,26.13
2018-05-19T10:31:13.468Z,25.72
2018-05-19T10:32:13.993Z,25.46
2018-05-19T10:33:14.056Z,25.6
2018-05-19T10:35:13.927Z,26.05
2018-05-19T10:36:14.126Z,26.07
2018-05-19T10:37:14.145Z,26.02
2018-05-19T10:38:14.214Z,25.65
2018-05-19T10:39:14.206Z,25.45
2018-05-19T10:40:28.915Z,24.99
2018-05-19T10:41:14.276Z,24.88
2018-05-19T10:42:14.336Z,24.73
2018-05-19T10:43:14.062Z,24.96
2018-05-19T10:44:14.352Z,25.17
2018-05-19T10:45:14.133Z,25.36
2018-05-19T10:46:14.176Z,25.32
2018-05-19T10:47:29.119Z,25.47
2018-05-19T10:48:14.469Z,25.42
2018-05-19T10:49:14.534Z,25.28
2018-05-19T10:50:14.528Z,25.15
2018-05-19T10:51:14.580Z,24.8
2018-05-19T10:52:14.585Z,24.73
2018-05-19T10:53:14.642Z,25.03
2018-05-19T10:54:14.659Z,25.08
2018-05-19T10:55:14.668Z,24.93
2018-05-19T10:56:14.470Z,25.08
2018-05-19T10:57:29.142Z,25.2
2018-05-19T10:58:14.768Z,25.23
2018-05-19T10:59:14.551Z,25.23
2018-05-19T11:00:14.553Z,25.42
2018-05-19T11:01:14.877Z,25.55
2018-05-19T11:02:14.872Z,25.69
2018-05-19T11:04:14.965Z,25.32
2018-05-19T11:05:14.700Z,25.3
2018-05-19T11:06:15.000Z,25.2
2018-05-19T11:07:14.752Z,25.2
2018-05-19T11:09:14.809Z,25.35
2018-05-19T11:10:14.864Z,25.24
2018-05-19T11:11:15.144Z,25.17
2018-05-19T11:12:29.832Z,25.35
2018-05-19T11:13:15.186Z,25.5
2018-05-19T11:14:15.215Z,25.32
2018-05-19T11:15:15.003Z,25.3
2018-05-19T11:16:15.284Z,25.32
2018-05-19T11:17:15.331Z,25.33
2018-05-19T11:18:15.070Z,25.85
2018-05-19T11:19:15.471Z,26.06
2018-05-19T11:20:15.405Z,26.2
2018-05-19T11:21:15.430Z,26.02
2018-05-19T11:22:15.465Z,25.87
2018-05-19T11:23:15.464Z,25.75
2018-05-19T11:24:15.508Z,25.92
2018-05-19T11:25:15.289Z,26.02
2018-05-19T11:26:15.646Z,25.85
2018-05-19T11:27:15.612Z,25.45
2018-05-19T11:28:30.265Z,25.28
2018-05-19T11:29:30.050Z,25.13
2018-05-19T11:30:15.661Z,25.23
2018-05-19T11:31:15.694Z,25.38
2018-05-19T11:32:15.755Z,25.2
2018-05-19T11:33:15.762Z,25.42
2018-05-19T11:34:15.542Z,25.52
2018-05-19T11:35:30.464Z,25.64
2018-05-19T11:36:15.864Z,25.64
2018-05-19T11:37:15.600Z,25.52
2018-05-19T11:38:15.913Z,25.62
2018-05-19T11:39:15.916Z,25.7
2018-05-19T11:40:15.980Z,25.97
2018-05-19T11:41:15.733Z,26.07
2018-05-19T11:43:16.044Z,25.83
2018-05-19T11:44:30.713Z,26.06
2018-05-19T11:45:16.119Z,26.18
2018-05-19T11:46:16.113Z,26.43
2018-05-19T11:47:15.907Z,26.37
2018-05-19T11:48:16.177Z,26.35
2018-05-19T11:49:15.945Z,26.3
2018-05-19T11:51:16.282Z,25.79
2018-05-19T11:52:16.282Z,25.75
2018-05-19T11:53:16.332Z,25.43
2018-05-19T11:54:16.337Z,25.61
2018-05-19T11:55:16.385Z,25.52
2018-05-19T11:56:16.130Z,25.92
2018-05-19T11:57:16.448Z,25.47
2018-05-19T11:58:16.478Z,24.58
2018-05-19T11:59:16.489Z,24.6
2018-05-19T12:00:30.904Z,24.69
2018-05-19T12:01:16.337Z,24.88
2018-05-19T12:02:16.559Z,25.24
2018-05-19T12:04:16.377Z,25.58
2018-05-19T12:06:31.348Z,25.5
2018-05-19T12:07:16.715Z,25.32
2018-05-19T12:08:16.846Z,25.39
2018-05-19T12:09:16.756Z,25.36
2018-05-19T12:10:16.547Z,25.36
2018-05-19T12:11:16.551Z,25.39
2018-05-19T12:12:16.847Z,25.58
2018-05-19T12:13:16.608Z,25.72
2018-05-19T12:14:16.659Z,25.6
2018-05-19T12:15:31.586Z,25.69
2018-05-19T12:16:16.976Z,25.73
2018-05-19T12:17:16.981Z,24.99
2018-05-19T12:18:17.033Z,24.39
2018-05-19T12:19:31.695Z,24.34
2018-05-19T12:20:17.098Z,24.61
2018-05-19T12:21:31.748Z,24.78
2018-05-19T12:22:17.115Z,24.98
2018-05-19T12:23:16.910Z,25.13
2018-05-19T12:24:17.171Z,25
2018-05-19T12:25:17.231Z,24.91
2018-05-19T12:26:16.966Z,24.98
2018-05-19T12:27:17.023Z,25.32
2018-05-19T12:28:17.026Z,25.45
2018-05-19T12:29:17.047Z,25.1
2018-05-19T12:30:16.835Z,24.9
2018-05-19T12:31:17.388Z,24.98
2018-05-19T12:32:17.157Z,25.05
2018-05-19T12:33:17.422Z,25.02
2018-05-19T12:34:17.471Z,24.99
2018-05-19T12:35:17.554Z,24.78
2018-05-19T12:36:32.186Z,24.57
2018-05-19T12:37:17.527Z,24.45
2018-05-19T12:38:17.606Z,24.28
2018-05-19T12:39:17.612Z,24.49
2018-05-19T12:40:17.625Z,24.78
2018-05-19T12:41:17.383Z,24.88
2018-05-19T12:42:17.747Z,24.81
2018-05-19T12:43:17.736Z,24.49
2018-05-19T12:44:17.746Z,24.43
2018-05-19T12:45:17.487Z,24.31
2018-05-19T12:46:17.547Z,24.31
2018-05-19T12:47:32.560Z,24.3
2018-05-19T12:48:17.860Z,23.97
2018-05-19T12:49:17.881Z,23.68
2018-05-19T12:50:17.637Z,23.75
2018-05-19T12:51:17.655Z,24.05
2018-05-19T12:52:17.676Z,24.13
2018-05-19T12:53:17.996Z,24.37
2018-05-19T12:54:32.657Z,24.3
2018-05-19T12:55:32.700Z,24.27
2018-05-19T12:56:18.060Z,24.32
2018-05-19T12:57:18.111Z,24.43
2018-05-19T12:58:17.841Z,24.61
2018-05-19T12:59:17.871Z,24.76
2018-05-19T13:00:17.906Z,24.87
2018-05-19T13:01:18.211Z,24.68
2018-05-19T13:02:18.242Z,24.65
2018-05-19T13:03:33.040Z,24.55
2018-05-19T13:04:18.301Z,24.32
2018-05-19T13:05:18.033Z,23.97
2018-05-19T13:07:18.373Z,23.8
2018-05-19T13:09:18.425Z,24.09
2018-05-19T13:10:18.455Z,23.95
2018-05-19T13:11:18.466Z,24.03
2018-05-19T13:12:18.515Z,24.05
2018-05-19T13:14:18.533Z,24.15
2018-05-19T13:15:18.586Z,23.8
2018-05-19T13:16:18.584Z,23.65
2018-05-19T13:17:18.643Z,23.28
2018-05-19T13:18:18.642Z,23.33
2018-05-19T13:19:33.346Z,23.31
2018-05-19T13:20:18.720Z,23.35
2018-05-19T13:21:18.827Z,23.48
2018-05-19T13:22:18.754Z,23.53
2018-05-19T13:23:18.523Z,23.61
2018-05-19T13:24:18.563Z,23.6
2018-05-19T13:25:18.859Z,23.31
2018-05-19T13:26:18.890Z,23.31
2018-05-19T13:27:18.887Z,23.57
2018-05-19T13:28:18.672Z,23.57
2018-05-19T13:29:33.341Z,23.8
2018-05-19T13:30:33.366Z,23.8
2018-05-19T13:31:19.000Z,23.69
2018-05-19T13:33:19.077Z,23.54
2018-05-19T13:34:18.806Z,23.8
2018-05-19T13:35:33.772Z,23.68
2018-05-19T13:36:18.866Z,23.55
2018-05-19T13:37:19.167Z,23.55
2018-05-19T13:39:18.940Z,23.57
2018-05-19T13:40:19.234Z,23.76
2018-05-19T13:41:19.071Z,23.65
2018-05-19T13:42:19.304Z,23.66
2018-05-19T13:43:19.342Z,23.76
2018-05-19T13:44:19.331Z,23.84
2018-05-19T13:45:19.121Z,23.57
2018-05-19T13:46:19.124Z,23.46